Yatesville, Illinois
Current Conditions -  °F | °C
As of 1:35 AM on Saturday 25 Oct 2014 (Local Time) from KIJX Reporting Station
Clear Clear  
Wind Chill: 62°   Ceiling: Unl
Heat Index: 62°   Visibility: 10mi
Dew Point: 56°   Wind: 7mph
Humidity: 81%   Direction: 220°SW
Pressure: 29.95"   Gusts: NA
Location:  39.9123°N, 90.0575°W
Report Text: KIJX 250635Z AUTO 22006KT 10SM CLR 17/13 A2995 RMK AO2 T01650133
Loading
Personal Weather Stations






























Interactive Weather Map
Tropical Storm Tracking
New forecast layout! Learn more

10-Day Weather Forecast

Advertisements
Track Severe Weather on mobile